This is the latest recevied weather packets stored in our database for station/object OH2TH. If no packets are shown the sender has not sent any weather packets the latest 10 day(s).
| Time | Temp. | Humidity | Pressure | Rain* | Wind** | Luminosity | Snow |
|---|---|---|---|---|---|---|---|
| 1788418805 | 16.67° C | 74% | 1000 hPa | - | - | - | - |
| 1788417905 | 16.67° C | 77% | 1000 hPa | - | - | - | - |
| 1788417004 | 15.56° C | 81% | 1000 hPa | - | - | - | - |
| 1788416104 | 12.78° C | 89% | 1000 hPa | - | - | - | - |
| 1788415203 | 12.78° C | 93% | 1000 hPa | - | - | - | - |
| 1788413402 | 12.78° C | 97% | 1000 hPa | - | - | - | - |
| 1788412501 | 13.33° C | 97% | 1000 hPa | - | - | - | - |
| 1788411605 | 13.33° C | 96% | 1000 hPa | - | - | - | - |
| 1788410704 | 13.33° C | 97% | 1000 hPa | - | - | - | - |
| 1788409803 | 13.33° C | 97% | 1000 hPa | - | - | - | - |
| 1788408902 | 13.89° C | 97% | 1000 hPa | - | - | - | - |
| 1788408001 | 13.89° C | 98% | 1000 hPa | - | - | - | - |
| 1788407101 | 13.89° C | 99% | 1000 hPa | - | - | - | - |
| 1788405304 | 13.89° C | 99% | 1000 hPa | - | - | - | - |
| 1788404404 | 13.89° C | 99% | 1000 hPa | - | - | - | - |
| 1788403503 | 13.89° C | 98% | 1000 hPa | - | - | - | - |
| 1788402602 | 13.89° C | 98% | 1000 hPa | - | - | - | - |
| 1788401701 | 12.78° C | 98% | 1000 hPa | - | - | - | - |
| 1788379204 | 14.44° C | 90% | 1010 hPa | - | - | - | - |
| 1788374703 | 15.56° C | 95% | 1010 hPa | - | - | - | - |
| 1788373802 | 15.56° C | 95% | 1010 hPa | - | - | - | - |
| 1788372902 | 15.56° C | 94% | 1010 hPa | - | - | - | - |
| 1788372002 | 15.56° C | 94% | 1010 hPa | - | - | - | - |
| 1788370205 | 17.22° C | 91% | 1010 hPa | - | - | - | - |
| 1788369305 | 17.22° C | 89% | 1010 hPa | - | - | - | - |
* Rain since midnight (hover to see other rain measurements)
** Current wind speed in m/s (hover to see current wind gust speed)